Time;durP1;ratioP1;P1;durP2;ratioP2;P2;SDS_P1;SDS_P2;PMS_P1;PMS_P2;Temp;Humidity;BMP_temperature;BMP_pressure;BME280_temperature;BME280_humidity;BME280_pressure;Samples;Min_cycle;Max_cycle;Signal;HPM_P1;HPM_P2
2021/05/01 00:01:58;0.00;0.00;0.62;0.00;0.00;0.62;3.90;1.50;;;25.50;23.80;;;;;;2269349;61;20406;-66
2021/05/01 00:04:25;0.00;0.00;0.62;0.00;0.00;0.62;2.33;1.97;;;25.50;23.80;;;;;;2269414;61;20718;-66
2021/05/01 00:06:52;0.00;0.00;0.62;0.00;0.00;0.62;2.00;1.80;;;25.50;23.80;;;;;;2269695;61;20369;-66
2021/05/01 00:09:18;0.00;0.00;0.62;0.00;0.00;0.62;2.67;2.00;;;25.50;23.90;;;;;;2269920;61;20354;-64
2021/05/01 00:11:45;0.00;0.00;0.62;0.00;0.00;0.62;2.10;1.47;;;25.50;23.90;;;;;;2269388;61;20423;-63
2021/05/01 00:14:12;0.00;0.00;0.62;0.00;0.00;0.62;2.03;1.70;;;25.50;23.90;;;;;;2269596;61;20449;-65
2021/05/01 00:16:38;0.00;0.00;0.62;0.00;0.00;0.62;2.57;1.97;;;25.50;23.90;;;;;;2269849;61;20598;-63
2021/05/01 00:19:06;0.00;0.00;0.62;0.00;0.00;0.62;1.70;1.40;;;25.50;23.90;;;;;;2268952;61;20383;-64
2021/05/01 00:21:33;0.00;0.00;0.62;0.00;0.00;0.62;2.20;1.80;;;25.50;23.90;;;;;;2269729;61;20358;-62
2021/05/01 00:24:00;0.00;0.00;0.62;0.00;0.00;0.62;2.03;1.83;;;25.40;23.80;;;;;;2269555;61;20376;-65
2021/05/01 00:26:27;0.00;0.00;0.62;0.00;0.00;0.62;3.00;2.13;;;25.50;23.90;;;;;;2269432;61;20579;-64
2021/05/01 00:28:54;0.00;0.00;0.62;0.00;0.00;0.62;1.93;1.60;;;25.50;23.90;;;;;;2269818;61;20437;-68
2021/05/01 00:31:21;0.00;0.00;0.62;0.00;0.00;0.62;2.13;1.93;;;25.50;23.90;;;;;;2269588;61;20361;-64
2021/05/01 00:33:47;0.00;0.00;0.62;0.00;0.00;0.62;1.90;1.73;;;25.50;23.90;;;;;;2269365;61;20640;-66
2021/05/01 00:36:15;0.00;0.00;0.62;0.00;0.00;0.62;2.80;1.57;;;25.50;23.90;;;;;;2269351;61;20354;-64
2021/05/01 00:38:44;0.00;0.00;0.62;0.00;0.00;0.62;1.73;1.63;;;25.40;23.80;;;;;;2269438;61;20399;-63
2021/05/01 00:41:10;0.00;0.00;0.62;0.00;0.00;0.62;1.87;1.67;;;25.40;23.90;;;;;;2269273;61;20357;-65
2021/05/01 00:43:39;0.00;0.00;0.62;0.00;0.00;0.62;1.90;1.60;;;25.50;23.90;;;;;;2269770;61;20385;-65
2021/05/01 00:46:06;0.00;0.00;0.62;0.00;0.00;0.62;1.60;1.40;;;25.50;24.00;;;;;;2269613;61;20384;-63
2021/05/01 00:48:33;0.00;0.00;0.62;0.00;0.00;0.62;1.70;1.40;;;25.40;23.90;;;;;;2269401;61;20678;-65
2021/05/01 00:51:03;0.00;0.00;0.62;0.00;0.00;0.62;2.00;1.70;;;25.50;24.00;;;;;;2269762;61;20434;-66
2021/05/01 00:53:32;0.00;0.00;0.62;0.00;0.00;0.62;1.90;1.70;;;25.50;24.00;;;;;;2269534;61;20408;-64
2021/05/01 00:56:00;0.00;0.00;0.62;0.00;0.00;0.62;1.80;1.60;;;25.50;24.10;;;;;;2269434;61;20354;-67
2021/05/01 00:58:26;0.00;0.00;0.62;0.00;0.00;0.62;1.50;1.27;;;25.50;24.10;;;;;;2269815;61;20392;-63
2021/05/01 01:03:37;0.00;0.00;0.62;0.00;0.00;0.62;1.80;1.40;;;25.40;24.00;;;;;;2269187;61;20370;-65
2021/05/01 01:06:06;0.00;0.00;0.62;0.00;0.00;0.62;2.30;1.50;;;25.40;24.00;;;;;;2269442;61;20381;-66
2021/05/01 01:08:33;0.00;0.00;0.62;0.00;0.00;0.62;1.90;1.70;;;25.40;24.00;;;;;;2269775;61;20354;-66
2021/05/01 01:11:00;0.00;0.00;0.62;0.00;0.00;0.62;1.63;1.37;;;25.40;24.00;;;;;;2269064;61;20362;-63
2021/05/01 01:13:27;0.00;0.00;0.62;0.00;0.00;0.62;1.90;1.70;;;25.40;24.00;;;;;;2269506;61;20447;-63
2021/05/01 01:15:53;0.00;0.00;0.62;0.00;0.00;0.62;1.93;1.60;;;25.40;24.00;;;;;;2269844;61;20350;-67
2021/05/01 01:18:20;0.00;0.00;0.62;0.00;0.00;0.62;2.00;1.53;;;25.40;24.00;;;;;;2269292;61;20709;-65
2021/05/01 01:20:47;0.00;0.00;0.62;0.00;0.00;0.62;2.30;1.60;;;25.40;24.00;;;;;;2269528;61;20365;-68
2021/05/01 01:23:14;0.00;0.00;0.62;0.00;0.00;0.62;1.93;1.37;;;25.40;24.00;;;;;;2269090;61;20350;-65
2021/05/01 01:25:41;0.00;0.00;0.62;0.00;0.00;0.62;2.03;1.50;;;25.40;24.00;;;;;;2269115;61;20381;-65
2021/05/01 01:28:07;0.00;0.00;0.62;0.00;0.00;0.62;2.70;1.70;;;25.40;24.00;;;;;;2269739;61;20364;-66
2021/05/01 01:30:35;0.00;0.00;0.62;0.00;0.00;0.62;4.37;3.70;;;25.40;24.00;;;;;;2269475;61;20686;-65
2021/05/01 01:33:06;0.00;0.00;0.62;0.00;0.00;0.62;4.00;3.00;;;25.40;23.90;;;;;;2269015;61;20368;-66
2021/05/01 01:35:34;0.00;0.00;0.62;0.00;0.00;0.62;3.20;2.80;;;25.40;23.90;;;;;;2269975;61;20354;-66
2021/05/01 01:38:01;0.00;0.00;0.62;0.00;0.00;0.62;4.20;2.90;;;25.40;24.00;;;;;;2269546;61;20437;-66
2021/05/01 01:40:29;0.00;0.00;0.62;0.00;0.00;0.62;3.37;3.00;;;25.40;24.00;;;;;;2269003;61;20627;-64
2021/05/01 01:42:56;0.00;0.00;0.62;0.00;0.00;0.62;4.30;2.50;;;25.40;24.00;;;;;;2269642;61;20403;-65
2021/05/01 01:45:27;0.00;0.00;0.62;0.00;0.00;0.62;3.90;2.50;;;25.40;24.10;;;;;;2268967;61;20382;-66
2021/05/01 01:47:54;0.00;0.00;0.62;0.00;0.00;0.62;4.00;3.50;;;25.40;24.00;;;;;;2269137;61;20710;-65
2021/05/01 01:50:21;0.00;0.00;0.62;0.00;0.00;0.62;2.50;2.30;;;25.40;24.10;;;;;;2269459;61;20609;-65
2021/05/01 01:52:49;0.00;0.00;0.62;0.00;0.00;0.62;2.83;2.50;;;25.40;24.10;;;;;;2269282;61;20701;-67
2021/05/01 01:55:18;0.00;0.00;0.62;0.00;0.00;0.62;2.50;2.20;;;25.30;24.10;;;;;;2269106;61;20370;-66
2021/05/01 01:57:46;0.00;0.00;0.62;0.00;0.00;0.62;3.10;2.53;;;25.30;24.00;;;;;;2269758;61;20357;-66
2021/05/01 02:00:16;0.00;0.00;0.62;0.00;0.00;0.62;2.67;2.07;;;25.30;24.10;;;;;;2269301;61;20366;-67
2021/05/01 02:02:44;0.00;0.00;0.62;0.00;0.00;0.62;3.73;2.67;;;25.30;24.10;;;;;;2268897;61;20354;-67
2021/05/01 02:05:12;0.00;0.00;0.62;0.00;0.00;0.62;2.90;2.37;;;25.30;24.10;;;;;;2269506;61;20734;-66
2021/05/01 02:07:39;0.00;0.00;0.62;0.00;0.00;0.62;2.57;1.93;;;25.30;24.20;;;;;;2269496;61;20429;-66
2021/05/01 02:10:08;0.00;0.00;0.62;0.00;0.00;0.62;2.33;1.83;;;25.30;24.20;;;;;;2269036;61;20403;-66
2021/05/01 02:12:38;0.00;0.00;0.62;0.00;0.00;0.62;3.30;2.10;;;25.30;24.10;;;;;;2269342;61;20354;-66
2021/05/01 02:15:11;0.00;0.00;0.62;0.00;0.00;0.62;2.47;1.87;;;25.30;24.20;;;;;;2269390;61;20365;-65
2021/05/01 02:17:40;0.00;0.00;0.62;0.00;0.00;0.62;2.90;2.30;;;25.30;24.20;;;;;;2269056;61;20450;-65
2021/05/01 02:20:08;0.00;0.00;0.62;0.00;0.00;0.62;3.10;2.13;;;25.30;24.30;;;;;;2269178;61;20373;-65
2021/05/01 02:22:35;0.00;0.00;0.62;0.00;0.00;0.62;2.50;2.13;;;25.30;24.20;;;;;;2269372;61;20479;-66
2021/05/01 02:25:06;0.00;0.00;0.62;0.00;0.00;0.62;3.00;2.33;;;25.30;24.20;;;;;;2269022;61;20458;-66
2021/05/01 02:27:33;0.00;0.00;0.62;0.00;0.00;0.62;2.43;1.90;;;25.30;24.20;;;;;;2269278;61;20353;-66
2021/05/01 02:30:00;0.00;0.00;0.62;0.00;0.00;0.62;2.00;1.80;;;25.20;24.10;;;;;;2269618;61;20675;-66
2021/05/01 02:32:27;0.00;0.00;0.62;0.00;0.00;0.62;2.00;1.60;;;25.20;24.00;;;;;;2268804;61;20362;-65
2021/05/01 02:34:54;0.00;0.00;0.62;0.00;0.00;0.62;2.10;1.90;;;25.20;24.10;;;;;;2269204;61;20427;-66
2021/05/01 02:37:20;0.00;0.00;0.62;0.00;0.00;0.62;3.80;2.30;;;25.20;24.00;;;;;;2269443;61;20381;-65
2021/05/01 02:39:47;0.00;0.00;0.62;0.00;0.00;0.62;2.40;1.87;;;25.20;24.00;;;;;;2268930;61;20361;-65
2021/05/01 02:42:13;0.00;0.00;0.62;0.00;0.00;0.62;2.27;1.77;;;25.20;24.00;;;;;;2269121;61;20421;-65
2021/05/01 02:44:40;0.00;0.00;0.62;0.00;0.00;0.62;2.30;2.10;;;25.20;24.00;;;;;;2268647;61;20643;-65
2021/05/01 02:47:07;0.00;0.00;0.62;0.00;0.00;0.62;2.90;2.47;;;25.20;24.00;;;;;;2269041;61;20686;-66
2021/05/01 02:49:34;0.00;0.00;0.62;0.00;0.00;0.62;2.33;1.77;;;25.20;24.00;;;;;;2269505;61;20357;-66
2021/05/01 02:52:00;0.00;0.00;0.62;0.00;0.00;0.62;2.30;1.90;;;25.20;24.00;;;;;;2269118;61;20399;-65
2021/05/01 02:54:27;0.00;0.00;0.62;0.00;0.00;0.62;2.00;1.80;;;25.20;24.00;;;;;;2268788;61;20378;-67
2021/05/01 02:56:54;0.00;0.00;0.62;0.00;0.00;0.62;2.27;1.97;;;25.20;24.00;;;;;;2269446;61;20346;-65
2021/05/01 02:59:20;0.00;0.00;0.62;0.00;0.00;0.62;2.10;1.83;;;25.20;24.00;;;;;;2269043;61;20369;-66
2021/05/01 03:01:47;0.00;0.00;0.62;0.00;0.00;0.62;2.23;1.80;;;25.20;24.00;;;;;;2269231;61;20812;-66
2021/05/01 03:04:14;0.00;0.00;0.62;0.00;0.00;0.62;2.80;1.97;;;25.20;23.90;;;;;;2270088;61;20373;-66
2021/05/01 03:06:41;0.00;0.00;0.62;0.00;0.00;0.62;2.73;1.93;;;25.20;23.90;;;;;;2269945;61;20463;-66
2021/05/01 03:09:07;0.00;0.00;0.62;0.00;0.00;0.62;2.50;2.17;;;25.20;24.00;;;;;;2269667;61;20358;-65
2021/05/01 03:11:34;0.00;0.00;0.62;0.00;0.00;0.62;1.83;1.73;;;25.20;24.00;;;;;;2269978;61;20354;-66
2021/05/01 03:14:01;0.00;0.00;0.62;0.00;0.00;0.62;1.70;1.60;;;25.20;23.90;;;;;;2269826;61;20369;-66
2021/05/01 03:16:27;0.00;0.00;0.62;0.00;0.00;0.62;1.80;1.60;;;25.10;23.90;;;;;;2269599;61;20360;-66
2021/05/01 03:18:54;0.00;0.00;0.62;0.00;0.00;0.62;1.90;1.70;;;25.10;23.90;;;;;;2270138;61;20360;-65
2021/05/01 03:21:20;0.00;0.00;0.62;0.00;0.00;0.62;1.87;1.70;;;25.10;23.90;;;;;;2269836;61;20350;-67
2021/05/01 03:23:50;0.00;0.00;0.62;0.00;0.00;0.62;2.70;1.87;;;25.10;23.90;;;;;;2269386;61;20466;-67
2021/05/01 03:26:17;0.00;0.00;0.62;0.00;0.00;0.62;1.90;1.60;;;25.10;23.90;;;;;;2269539;61;20428;-67
2021/05/01 03:28:44;0.00;0.00;0.62;0.00;0.00;0.62;2.07;1.80;;;25.10;23.90;;;;;;2269897;61;20368;-67
2021/05/01 03:31:11;0.00;0.00;0.62;0.00;0.00;0.62;1.73;1.60;;;25.10;24.00;;;;;;2269455;61;20350;-65
2021/05/01 03:33:37;0.00;0.00;0.62;0.00;0.00;0.62;3.87;2.00;;;25.10;23.90;;;;;;2270054;61;20733;-66
2021/05/01 03:36:05;0.00;0.00;0.62;0.00;0.00;0.62;2.40;1.70;;;25.10;24.00;;;;;;2269431;61;20716;-66
2021/05/01 03:38:32;0.00;0.00;0.62;0.00;0.00;0.62;2.37;1.70;;;25.10;24.00;;;;;;2269480;61;20577;-66
2021/05/01 03:41:00;0.00;0.00;0.62;0.00;0.00;0.62;2.13;1.77;;;25.10;24.00;;;;;;2269912;61;20406;-65
2021/05/01 03:43:27;0.00;0.00;0.62;0.00;0.00;0.62;2.03;1.63;;;25.10;24.10;;;;;;2269705;61;20432;-65
2021/05/01 03:45:55;0.00;0.00;0.62;0.00;0.00;0.62;2.13;1.70;;;25.10;24.10;;;;;;2269347;61;20378;-66
2021/05/01 03:48:21;0.00;0.00;0.62;0.00;0.00;0.62;3.60;1.60;;;25.10;24.10;;;;;;2269616;61;20547;-67
2021/05/01 03:50:48;0.00;0.00;0.62;0.00;0.00;0.62;3.40;2.00;;;25.10;24.00;;;;;;2269094;61;20432;-67
2021/05/01 03:53:15;0.00;0.00;0.62;0.00;0.00;0.62;2.03;1.83;;;25.10;24.10;;;;;;2269363;61;20406;-67
2021/05/01 03:55:42;0.00;0.00;0.62;0.00;0.00;0.62;1.90;1.43;;;25.10;24.10;;;;;;2270143;61;20706;-67
2021/05/01 03:58:09;0.00;0.00;0.62;0.00;0.00;0.62;2.87;1.77;;;25.10;24.20;;;;;;2269645;61;20385;-66
2021/05/01 04:00:36;0.00;0.00;0.62;0.00;0.00;0.62;2.33;1.50;;;25.00;24.10;;;;;;2269202;61;20378;-67
2021/05/01 04:03:02;0.00;0.00;0.62;0.00;0.00;0.62;1.87;1.50;;;25.00;24.10;;;;;;2269876;61;20690;-65
2021/05/01 04:05:29;0.00;0.00;0.62;0.00;0.00;0.62;2.30;1.57;;;25.00;24.10;;;;;;2269569;61;20639;-65
2021/05/01 04:07:56;0.00;0.00;0.62;0.00;0.00;0.62;2.03;1.60;;;25.00;24.10;;;;;;2269371;61;20350;-65
2021/05/01 04:10:22;0.00;0.00;0.62;0.00;0.00;0.62;3.40;1.70;;;25.00;24.20;;;;;;2270006;61;20357;-67
2021/05/01 04:12:49;0.00;0.00;0.62;0.00;0.00;0.62;1.93;1.60;;;25.00;24.20;;;;;;2268718;61;20362;-67
2021/05/01 04:15:16;0.00;0.00;0.62;0.00;0.00;0.62;2.10;1.90;;;25.00;24.20;;;;;;2269379;61;20374;-66
2021/05/01 04:17:43;0.00;0.00;0.62;0.00;0.00;0.62;1.97;1.50;;;25.00;24.20;;;;;;2270048;61;20590;-67
2021/05/01 04:20:11;0.00;0.00;0.62;0.00;0.00;0.62;1.93;1.60;;;25.00;24.10;;;;;;2269402;61;20794;-67
2021/05/01 04:22:38;0.00;0.00;0.62;0.00;0.00;0.62;2.03;1.73;;;25.00;24.10;;;;;;2269171;61;20361;-66
2021/05/01 04:25:07;0.00;0.00;0.62;0.00;0.00;0.62;1.50;1.20;;;25.00;24.10;;;;;;2266085;61;20533;-65
2021/05/01 04:27:34;0.00;0.00;0.62;0.00;0.00;0.62;1.93;1.40;;;25.00;24.10;;;;;;2269579;61;20679;-67
2021/05/01 04:30:00;0.00;0.00;0.62;0.00;0.00;0.62;2.97;1.63;;;25.00;24.10;;;;;;2269489;61;20354;-66
2021/05/01 04:32:28;0.00;0.00;0.62;0.00;0.00;0.62;1.70;1.40;;;25.00;24.10;;;;;;2269671;61;20369;-65
2021/05/01 04:34:54;0.00;0.00;0.62;0.00;0.00;0.62;1.90;1.60;;;25.00;24.10;;;;;;2269521;61;20392;-65
2021/05/01 04:37:21;0.00;0.00;0.62;0.00;0.00;0.62;1.60;1.33;;;25.00;24.10;;;;;;2269401;61;20354;-67
2021/05/01 04:39:47;0.00;0.00;0.62;0.00;0.00;0.62;1.67;1.37;;;25.00;24.00;;;;;;2269822;61;20736;-66
2021/05/01 04:42:15;0.00;0.00;0.62;0.00;0.00;0.62;1.80;1.50;;;25.00;24.00;;;;;;2269278;61;20378;-65
2021/05/01 04:44:41;0.00;0.00;0.62;0.00;0.00;0.62;1.60;1.30;;;25.00;24.00;;;;;;2269209;61;20443;-66
2021/05/01 04:47:08;0.00;0.00;0.62;0.00;0.00;0.62;1.53;1.40;;;25.00;24.00;;;;;;2269852;61;20687;-67
2021/05/01 04:49:36;0.00;0.00;0.62;0.00;0.00;0.62;1.90;1.50;;;25.00;24.60;;;;;;2269353;61;20647;-66
2021/05/01 04:52:03;0.00;0.00;0.62;0.00;0.00;0.62;1.90;1.30;;;25.00;24.10;;;;;;2269194;61;20365;-66
2021/05/01 04:54:30;0.00;0.00;0.62;0.00;0.00;0.62;1.80;1.30;;;25.00;24.00;;;;;;2269802;61;20373;-66
2021/05/01 04:56:56;0.00;0.00;0.62;0.00;0.00;0.62;1.93;1.20;;;25.00;24.00;;;;;;2269396;61;20354;-66
2021/05/01 04:59:23;0.00;0.00;0.62;0.00;0.00;0.62;1.80;1.50;;;25.00;24.00;;;;;;2269267;61;20359;-65
2021/05/01 05:01:49;0.00;0.00;0.62;0.00;0.00;0.62;2.10;1.40;;;25.00;24.10;;;;;;2269669;61;20380;-66
2021/05/01 05:04:16;0.00;0.00;0.62;0.00;0.00;0.62;1.67;1.40;;;25.00;24.00;;;;;;2269233;61;20417;-65
2021/05/01 05:06:43;0.00;0.00;0.62;0.00;0.00;0.62;1.77;1.63;;;25.00;24.10;;;;;;2269535;61;20408;-67
2021/05/01 05:09:10;0.00;0.00;0.62;0.00;0.00;0.62;1.83;1.63;;;25.00;24.00;;;;;;2269607;61;20610;-67
2021/05/01 05:11:36;0.00;0.00;0.62;0.00;0.00;0.62;1.93;1.53;;;25.00;24.00;;;;;;2269298;61;20483;-65
2021/05/01 05:14:03;0.00;0.00;0.62;0.00;0.00;0.62;1.97;1.47;;;24.90;23.90;;;;;;2269546;61;20722;-67
2021/05/01 05:16:30;0.00;0.00;0.62;0.00;0.00;0.62;1.73;1.43;;;25.00;24.00;;;;;;2269615;61;20346;-67
2021/05/01 05:18:56;0.00;0.00;0.62;0.00;0.00;0.62;1.87;1.50;;;25.00;24.00;;;;;;2269242;61;20356;-66
2021/05/01 05:21:23;0.00;0.00;0.62;0.00;0.00;0.62;1.90;1.63;;;25.00;24.00;;;;;;2269492;61;20416;-67
2021/05/01 05:23:50;0.00;0.00;0.62;0.00;0.00;0.62;1.40;1.17;;;24.90;23.90;;;;;;2269202;61;20374;-67
2021/05/01 05:26:17;0.00;0.00;0.62;0.00;0.00;0.62;1.80;1.70;;;24.90;23.90;;;;;;2269208;61;20385;-66
2021/05/01 05:28:44;0.00;0.00;0.62;0.00;0.00;0.62;1.80;1.37;;;25.00;24.00;;;;;;2269495;61;20358;-64
2021/05/01 05:31:10;0.00;0.00;0.62;0.00;0.00;0.62;1.97;1.33;;;24.90;24.00;;;;;;2269251;61;20354;-65
2021/05/01 05:33:37;0.00;0.00;0.62;0.00;0.00;0.62;1.90;1.20;;;25.00;24.00;;;;;;2269253;61;20396;-65
2021/05/01 05:36:04;0.00;0.00;0.62;0.00;0.00;0.62;1.80;1.50;;;25.00;24.00;;;;;;2269619;61;20350;-67
2021/05/01 05:38:31;0.00;0.00;0.62;0.00;0.00;0.62;1.57;1.13;;;25.00;24.00;;;;;;2269183;61;20349;-67
2021/05/01 05:40:58;0.00;0.00;0.62;0.00;0.00;0.62;2.17;1.50;;;25.00;24.00;;;;;;2269137;61;20361;-66
2021/05/01 05:43:27;0.00;0.00;0.62;0.00;0.00;0.62;1.50;1.10;;;25.00;24.00;;;;;;2269014;61;20706;-66
2021/05/01 05:45:53;0.00;0.00;0.62;0.00;0.00;0.62;1.73;1.40;;;25.00;24.00;;;;;;2269276;61;20890;-67
2021/05/01 05:48:22;0.00;0.00;0.62;0.00;0.00;0.62;1.70;1.30;;;25.00;24.00;;;;;;2269406;61;20714;-66
2021/05/01 05:50:48;0.00;0.00;0.62;0.00;0.00;0.62;2.20;1.43;;;24.90;23.90;;;;;;2268923;61;20350;-67
2021/05/01 05:53:15;0.00;0.00;0.62;0.00;0.00;0.62;1.80;1.37;;;25.00;24.00;;;;;;2269111;61;20403;-67
2021/05/01 05:55:41;0.00;0.00;0.62;0.00;0.00;0.62;1.87;1.43;;;25.00;24.00;;;;;;2269182;61;20563;-67
2021/05/01 05:58:09;0.00;0.00;0.62;0.00;0.00;0.62;2.20;1.40;;;25.00;24.00;;;;;;2269368;61;20357;-66
2021/05/01 06:00:36;0.00;0.00;0.62;0.00;0.00;0.62;1.63;1.33;;;25.00;24.50;;;;;;2269290;61;20354;-65
2021/05/01 06:03:07;0.00;0.00;0.62;0.00;0.00;0.62;1.83;1.40;;;25.00;24.00;;;;;;2268807;61;20362;-66
2021/05/01 06:05:41;0.00;0.00;0.62;0.00;0.00;0.62;1.90;1.47;;;25.00;24.00;;;;;;2268966;61;20366;-66
2021/05/01 06:08:10;0.00;0.00;0.62;0.00;0.00;0.62;1.80;1.50;;;25.00;24.00;;;;;;2269555;61;20353;-65
2021/05/01 06:10:39;0.00;0.00;0.62;0.00;0.00;0.62;2.10;1.63;;;25.00;24.00;;;;;;2269243;61;20393;-66
2021/05/01 06:13:07;0.00;0.00;0.62;0.00;0.00;0.62;1.60;1.23;;;25.00;24.00;;;;;;2269425;61;20687;-66
2021/05/01 06:15:35;0.00;0.00;0.62;0.00;0.00;0.62;1.60;1.10;;;25.00;24.00;;;;;;2269605;61;20571;-67
2021/05/01 06:18:02;0.00;0.00;0.62;0.00;0.00;0.62;1.80;1.47;;;25.00;24.00;;;;;;2269375;61;20645;-66
2021/05/01 06:20:31;0.00;0.00;0.62;0.00;0.00;0.62;1.73;1.43;;;25.00;24.00;;;;;;2269267;61;20358;-66
2021/05/01 06:23:00;0.00;0.00;0.62;0.00;0.00;0.62;1.43;1.23;;;25.00;24.00;;;;;;2269492;61;20584;-67
2021/05/01 06:25:28;0.00;0.00;0.62;0.00;0.00;0.62;1.60;1.40;;;25.00;24.00;;;;;;2269288;61;20378;-66
2021/05/01 06:27:56;0.00;0.00;0.62;0.00;0.00;0.62;1.60;1.43;;;25.00;24.10;;;;;;2269298;61;20353;-66
2021/05/01 06:30:24;0.00;0.00;0.62;0.00;0.00;0.62;1.67;1.43;;;25.00;24.00;;;;;;2269680;61;20361;-67
2021/05/01 06:32:52;0.00;0.00;0.62;0.00;0.00;0.62;1.83;1.53;;;25.00;24.00;;;;;;2269120;61;20737;-67
2021/05/01 06:35:20;0.00;0.00;0.62;0.00;0.00;0.62;2.00;1.23;;;25.00;24.00;;;;;;2268728;61;20461;-67
2021/05/01 06:37:50;0.00;0.00;0.62;0.00;0.00;0.62;1.63;1.43;;;25.00;24.00;;;;;;2270265;61;20361;-67
2021/05/01 06:40:21;0.00;0.00;0.62;0.00;0.00;0.62;2.00;1.47;;;25.00;24.00;;;;;;2269982;61;20361;-66
2021/05/01 06:42:57;0.00;0.00;0.62;0.00;0.00;0.62;1.80;1.57;;;25.00;24.00;;;;;;2269363;61;20350;-66
2021/05/01 06:45:24;0.00;0.00;0.62;0.00;0.00;0.62;1.60;1.40;;;25.00;24.00;;;;;;2270340;61;20420;-66
2021/05/01 06:47:55;0.00;0.00;0.62;0.00;0.00;0.62;1.97;1.53;;;25.00;24.10;;;;;;2269937;61;20717;-66
2021/05/01 06:50:23;0.00;0.00;0.62;0.00;0.00;0.62;1.40;1.10;;;25.00;24.00;;;;;;2270066;61;20702;-64
2021/05/01 06:52:50;0.00;0.00;0.62;0.00;0.00;0.62;2.13;1.70;;;25.00;24.00;;;;;;2270165;61;20687;-67
2021/05/01 06:55:20;0.00;0.00;0.62;0.00;0.00;0.62;2.30;2.10;;;25.00;24.10;;;;;;2269914;61;20374;-68
2021/05/01 06:57:48;0.00;0.00;0.62;0.00;0.00;0.62;2.60;2.40;;;25.10;24.00;;;;;;2270077;61;20620;-64
2021/05/01 07:00:16;0.00;0.00;0.62;0.00;0.00;0.62;2.20;2.00;;;25.10;24.00;;;;;;2270249;61;20358;-64
2021/05/01 07:02:45;0.00;0.00;0.62;0.00;0.00;0.62;2.30;2.10;;;25.10;24.00;;;;;;2269644;61;20437;-68
2021/05/01 07:05:16;0.00;0.00;0.62;0.00;0.00;0.62;2.90;2.63;;;25.10;24.00;;;;;;2269923;61;20389;-69
2021/05/01 07:07:44;0.00;0.00;0.62;0.00;0.00;0.62;2.40;2.20;;;25.10;24.00;;;;;;2270478;61;20368;-68
2021/05/01 07:10:15;0.00;0.00;0.62;0.00;0.00;0.62;2.40;1.80;;;25.10;24.00;;;;;;2268082;61;20353;-66
2021/05/01 07:12:42;0.00;0.00;0.62;0.00;0.00;0.62;2.07;1.87;;;25.10;24.00;;;;;;2269581;61;20404;-67
2021/05/01 07:15:12;0.00;0.00;0.62;0.00;0.00;0.62;3.07;2.50;;;25.10;24.00;;;;;;2269625;61;20377;-67
2021/05/01 07:17:40;0.00;0.00;0.62;0.00;0.00;0.62;2.60;1.97;;;25.10;24.00;;;;;;2269771;61;20350;-66
2021/05/01 07:20:09;0.00;0.00;0.62;0.00;0.00;0.62;2.10;1.90;;;25.10;24.00;;;;;;2269430;61;20365;-67
2021/05/01 07:22:37;0.00;0.00;0.62;0.00;0.00;0.62;3.67;2.10;;;25.10;24.00;;;;;;2270019;61;20350;-68
2021/05/01 07:25:06;0.00;0.00;0.62;0.00;0.00;0.62;2.33;1.53;;;25.10;24.00;;;;;;2269728;61;20971;-67
2021/05/01 07:27:40;0.00;0.00;0.62;0.00;0.00;0.62;3.50;2.17;;;25.10;24.00;;;;;;2270070;61;20652;-67
2021/05/01 07:30:08;0.00;0.00;0.62;0.00;0.00;0.62;2.43;2.10;;;25.10;24.10;;;;;;2270124;61;20717;-67
2021/05/01 07:32:40;0.00;0.00;0.62;0.00;0.00;0.62;4.70;1.77;;;25.10;24.10;;;;;;2269605;61;20372;-66
2021/05/01 07:35:08;0.00;0.00;0.62;0.00;0.00;0.62;2.60;1.80;;;25.10;24.10;;;;;;2269936;61;20688;-66
2021/05/01 07:37:38;0.00;0.00;0.62;0.00;0.00;0.62;1.80;1.70;;;25.10;24.10;;;;;;2270056;61;20353;-66
2021/05/01 07:40:10;0.00;0.00;0.62;0.00;0.00;0.62;2.10;1.90;;;25.10;24.00;;;;;;2269707;61;20380;-69
2021/05/01 07:42:39;0.00;0.00;0.62;0.00;0.00;0.62;1.93;1.73;;;25.10;24.00;;;;;;2270050;61;20350;-65
2021/05/01 07:45:10;0.00;0.00;0.62;0.00;0.00;0.62;2.90;2.00;;;25.10;24.10;;;;;;2270083;61;20380;-63
2021/05/01 07:47:38;0.00;0.00;0.62;0.00;0.00;0.62;2.23;1.67;;;25.10;24.10;;;;;;2269655;61;20365;-66
2021/05/01 07:50:09;0.00;0.00;0.62;0.00;0.00;0.62;3.20;1.53;;;25.20;24.20;;;;;;2270003;61;20396;-65
2021/05/01 07:52:37;0.00;0.00;0.62;0.00;0.00;0.62;2.27;1.90;;;25.20;24.20;;;;;;2269909;61;20361;-66
2021/05/01 07:55:05;0.00;0.00;0.62;0.00;0.00;0.62;3.60;1.70;;;25.20;24.20;;;;;;2269849;61;20605;-67
2021/05/01 07:57:31;0.00;0.00;0.62;0.00;0.00;0.62;2.10;1.80;;;25.20;24.10;;;;;;2269492;61;20361;-67
2021/05/01 07:59:58;0.00;0.00;0.62;0.00;0.00;0.62;3.23;1.80;;;25.20;24.10;;;;;;2269510;61;20432;-66
2021/05/01 08:02:24;0.00;0.00;0.62;0.00;0.00;0.62;2.10;1.90;;;25.20;24.00;;;;;;2269763;61;20360;-66
2021/05/01 08:04:51;0.00;0.00;0.62;0.00;0.00;0.62;1.90;1.43;;;25.20;24.00;;;;;;2269875;61;20430;-66
2021/05/01 08:07:18;0.00;0.00;0.62;0.00;0.00;0.62;1.90;1.50;;;25.20;24.00;;;;;;2269993;61;20389;-66
2021/05/01 08:09:45;0.00;0.00;0.62;0.00;0.00;0.62;2.07;1.40;;;25.20;24.00;;;;;;2269830;61;20397;-66
2021/05/01 08:12:11;0.00;0.00;0.62;0.00;0.00;0.62;4.43;1.60;;;25.30;24.50;;;;;;2269833;61;20354;-66
2021/05/01 08:14:38;0.00;0.00;0.62;0.00;0.00;0.62;1.43;1.30;;;25.30;24.00;;;;;;2269964;61;20386;-66
2021/05/01 08:17:05;0.00;0.00;0.62;0.00;0.00;0.62;1.77;1.67;;;25.30;24.00;;;;;;2269814;61;20346;-66
2021/05/01 08:19:32;0.00;0.00;0.62;0.00;0.00;0.62;2.50;1.33;;;25.30;23.90;;;;;;2269740;61;20357;-66
2021/05/01 08:21:58;0.00;0.00;0.62;0.00;0.00;0.62;2.53;1.43;;;25.30;23.90;;;;;;2269807;61;20379;-66
2021/05/01 08:24:25;0.00;0.00;0.62;0.00;0.00;0.62;1.93;1.20;;;25.40;24.00;;;;;;2269715;61;20378;-66
2021/05/01 08:26:52;0.00;0.00;0.62;0.00;0.00;0.62;1.70;1.30;;;25.40;23.90;;;;;;2269322;61;20698;-69
2021/05/01 08:29:19;0.00;0.00;0.62;0.00;0.00;0.62;1.70;1.50;;;25.40;23.90;;;;;;2270020;61;20354;-66
2021/05/01 08:31:46;0.00;0.00;0.62;0.00;0.00;0.62;1.67;1.50;;;25.40;23.90;;;;;;2269575;61;20354;-68
2021/05/01 08:34:55;0.00;0.00;0.62;0.00;0.00;0.62;2.17;1.30;;;25.40;23.90;;;;;;2269693;61;20377;-66
2021/05/01 08:37:21;0.00;0.00;0.62;0.00;0.00;0.62;1.63;1.20;;;25.40;23.90;;;;;;2270053;61;20387;-66
2021/05/01 08:39:48;0.00;0.00;0.62;0.00;0.00;0.62;2.20;1.63;;;25.40;23.80;;;;;;2269791;61;20422;-66
2021/05/01 08:42:18;0.00;0.00;0.62;0.00;0.00;0.62;2.13;1.60;;;25.40;23.80;;;;;;2269537;61;20412;-66
2021/05/01 08:44:45;0.00;0.00;0.62;0.00;0.00;0.62;1.47;1.33;;;25.40;23.80;;;;;;2269965;61;20598;-66
2021/05/01 08:47:11;0.00;0.00;0.62;0.00;0.00;0.62;1.70;1.50;;;25.50;23.80;;;;;;2269290;61;20756;-66
2021/05/01 08:49:38;0.00;0.00;0.62;0.00;0.00;0.62;2.90;1.20;;;25.40;23.80;;;;;;2269646;61;20385;-67
2021/05/01 08:52:05;0.00;0.00;0.62;0.00;0.00;0.62;2.40;1.47;;;25.50;23.80;;;;;;2269979;61;20372;-66
2021/05/01 08:54:31;0.00;0.00;0.62;0.00;0.00;0.62;1.57;1.37;;;25.50;23.80;;;;;;2269268;61;20369;-67
2021/05/01 08:56:59;0.00;0.00;0.62;0.00;0.00;0.62;1.50;1.27;;;25.50;23.80;;;;;;2269635;61;20387;-66
2021/05/01 08:59:26;0.00;0.00;0.62;0.00;0.00;0.62;1.93;1.60;;;25.50;23.70;;;;;;2269924;61;20380;-66
2021/05/01 09:01:53;0.00;0.00;0.62;0.00;0.00;0.62;2.17;1.50;;;25.50;23.80;;;;;;2269566;61;20353;-69
2021/05/01 09:04:20;0.00;0.00;0.62;0.00;0.00;0.62;2.07;1.47;;;25.50;23.70;;;;;;2269642;61;20449;-67
2021/05/01 09:06:47;0.00;0.00;0.62;0.00;0.00;0.62;2.57;1.67;;;25.50;23.70;;;;;;2269939;61;20612;-66
2021/05/01 09:09:14;0.00;0.00;0.62;0.00;0.00;0.62;1.80;1.20;;;25.50;23.70;;;;;;2269185;61;20440;-66
2021/05/01 09:11:43;0.00;0.00;0.62;0.00;0.00;0.62;1.50;1.40;;;25.50;23.70;;;;;;2269190;61;20354;-67
2021/05/01 09:14:21;0.00;0.00;0.62;0.00;0.00;0.62;1.60;1.47;;;25.50;23.70;;;;;;2269918;61;20438;-66
2021/05/01 09:17:00;0.00;0.00;0.62;0.00;0.00;0.62;2.07;1.27;;;25.50;23.70;;;;;;2269615;61;20360;-66
2021/05/01 09:19:33;0.00;0.00;0.62;0.00;0.00;0.62;1.80;1.20;;;25.50;23.70;;;;;;2269688;61;20432;-67
2021/05/01 09:22:05;0.00;0.00;0.62;0.00;0.00;0.62;2.07;1.60;;;25.50;23.70;;;;;;2269394;61;20358;-67
2021/05/01 09:24:32;0.00;0.00;0.62;0.00;0.00;0.62;1.47;1.10;;;25.50;23.70;;;;;;2269831;61;20373;-66
2021/05/01 09:26:59;0.00;0.00;0.62;0.00;0.00;0.62;2.07;1.10;;;25.50;23.70;;;;;;2269697;61;20385;-64
2021/05/01 09:29:32;0.00;0.00;0.62;0.00;0.00;0.62;1.63;1.30;;;25.50;23.60;;;;;;2269082;61;20358;-65
2021/05/01 09:32:02;0.00;0.00;0.62;0.00;0.00;0.62;1.93;1.20;;;25.50;23.70;;;;;;2269229;61;20706;-65
2021/05/01 09:34:43;0.00;0.00;0.62;0.00;0.00;0.62;1.63;1.40;;;25.50;23.60;;;;;;2269620;61;20430;-67
2021/05/01 09:37:11;0.00;0.00;0.62;0.00;0.00;0.62;1.90;1.50;;;25.60;23.70;;;;;;2269117;61;20350;-66
2021/05/01 09:39:49;0.00;0.00;0.62;0.00;0.00;0.62;1.70;1.40;;;25.50;23.60;;;;;;2269749;61;20387;-67
2021/05/01 09:42:19;0.00;0.00;0.62;0.00;0.00;0.62;1.63;1.33;;;25.50;23.60;;;;;;2269563;61;20361;-66
2021/05/01 09:44:46;0.00;0.00;0.62;0.00;0.00;0.62;1.50;1.33;;;25.50;23.60;;;;;;2269474;61;20385;-66
2021/05/01 09:47:18;0.00;0.00;0.62;0.00;0.00;0.62;1.60;1.30;;;25.50;23.60;;;;;;2269686;61;20606;-66